sensor_id;sensor_type;location;lat;lon;timestamp;P1;durP1;ratioP1;P2;durP2;ratioP2
22752;SDS011;11543;43.144;24.684;2023-07-22T00:02:21;10.77;;;4.13;;
22752;SDS011;11543;43.144;24.684;2023-07-22T00:04:48;13.57;;;3.88;;
22752;SDS011;11543;43.144;24.684;2023-07-22T00:07:14;10.23;;;4.50;;
22752;SDS011;11543;43.144;24.684;2023-07-22T00:09:39;10.95;;;4.38;;
22752;SDS011;11543;43.144;24.684;2023-07-22T00:12:06;13.57;;;4.45;;
22752;SDS011;11543;43.144;24.684;2023-07-22T00:14:32;8.23;;;3.95;;
22752;SDS011;11543;43.144;24.684;2023-07-22T00:16:58;11.60;;;4.45;;
22752;SDS011;11543;43.144;24.684;2023-07-22T00:19:23;17.73;;;4.75;;
22752;SDS011;11543;43.144;24.684;2023-07-22T00:21:48;15.05;;;4.32;;
22752;SDS011;11543;43.144;24.684;2023-07-22T00:24:14;17.30;;;4.47;;
22752;SDS011;11543;43.144;24.684;2023-07-22T00:26:40;12.00;;;5.05;;
22752;SDS011;11543;43.144;24.684;2023-07-22T00:29:07;14.70;;;4.65;;
22752;SDS011;11543;43.144;24.684;2023-07-22T00:31:33;13.15;;;4.90;;
22752;SDS011;11543;43.144;24.684;2023-07-22T00:33:58;11.45;;;4.40;;
22752;SDS011;11543;43.144;24.684;2023-07-22T00:36:25;16.27;;;5.13;;
22752;SDS011;11543;43.144;24.684;2023-07-22T00:38:50;12.05;;;4.55;;
22752;SDS011;11543;43.144;24.684;2023-07-22T00:41:17;14.50;;;4.55;;
22752;SDS011;11543;43.144;24.684;2023-07-22T00:43:43;11.88;;;4.68;;
22752;SDS011;11543;43.144;24.684;2023-07-22T00:46:09;9.05;;;4.07;;
22752;SDS011;11543;43.144;24.684;2023-07-22T00:48:34;10.38;;;4.40;;
22752;SDS011;11543;43.144;24.684;2023-07-22T00:51:01;13.60;;;4.28;;
22752;SDS011;11543;43.144;24.684;2023-07-22T00:53:27;15.48;;;4.00;;
22752;SDS011;11543;43.144;24.684;2023-07-22T00:55:54;14.13;;;4.13;;
22752;SDS011;11543;43.144;24.684;2023-07-22T00:58:20;10.52;;;3.78;;
22752;SDS011;11543;43.144;24.684;2023-07-22T01:00:45;13.43;;;4.32;;
22752;SDS011;11543;43.144;24.684;2023-07-22T01:03:11;10.27;;;4.30;;
22752;SDS011;11543;43.144;24.684;2023-07-22T01:05:38;11.63;;;3.85;;
22752;SDS011;11543;43.144;24.684;2023-07-22T01:08:04;17.00;;;4.38;;
22752;SDS011;11543;43.144;24.684;2023-07-22T01:10:31;11.60;;;3.90;;
22752;SDS011;11543;43.144;24.684;2023-07-22T01:12:56;14.95;;;4.03;;
22752;SDS011;11543;43.144;24.684;2023-07-22T01:15:23;15.40;;;4.03;;
22752;SDS011;11543;43.144;24.684;2023-07-22T01:17:49;10.63;;;4.00;;
22752;SDS011;11543;43.144;24.684;2023-07-22T01:20:15;12.30;;;4.18;;
22752;SDS011;11543;43.144;24.684;2023-07-22T01:22:50;10.15;;;3.70;;
22752;SDS011;11543;43.144;24.684;2023-07-22T01:25:17;14.73;;;3.90;;
22752;SDS011;11543;43.144;24.684;2023-07-22T01:27:44;11.40;;;4.00;;
22752;SDS011;11543;43.144;24.684;2023-07-22T01:30:10;12.55;;;3.65;;
22752;SDS011;11543;43.144;24.684;2023-07-22T01:32:36;9.68;;;3.53;;
22752;SDS011;11543;43.144;24.684;2023-07-22T01:35:02;12.30;;;3.95;;
22752;SDS011;11543;43.144;24.684;2023-07-22T01:37:27;17.10;;;3.97;;
22752;SDS011;11543;43.144;24.684;2023-07-22T01:39:53;14.75;;;3.85;;
22752;SDS011;11543;43.144;24.684;2023-07-22T01:42:22;10.15;;;3.78;;
22752;SDS011;11543;43.144;24.684;2023-07-22T01:44:48;9.65;;;3.60;;
22752;SDS011;11543;43.144;24.684;2023-07-22T01:47:13;12.85;;;3.92;;
22752;SDS011;11543;43.144;24.684;2023-07-22T01:49:39;14.65;;;3.90;;
22752;SDS011;11543;43.144;24.684;2023-07-22T01:52:04;13.00;;;3.80;;
22752;SDS011;11543;43.144;24.684;2023-07-22T01:54:30;17.55;;;4.00;;
22752;SDS011;11543;43.144;24.684;2023-07-22T01:56:55;13.98;;;4.00;;
22752;SDS011;11543;43.144;24.684;2023-07-22T01:59:21;10.63;;;3.75;;
22752;SDS011;11543;43.144;24.684;2023-07-22T02:01:47;11.60;;;3.78;;
22752;SDS011;11543;43.144;24.684;2023-07-22T02:04:12;9.45;;;3.67;;
22752;SDS011;11543;43.144;24.684;2023-07-22T02:06:38;19.17;;;4.10;;
22752;SDS011;11543;43.144;24.684;2023-07-22T02:09:03;15.50;;;3.47;;
22752;SDS011;11543;43.144;24.684;2023-07-22T02:11:34;10.90;;;3.95;;
22752;SDS011;11543;43.144;24.684;2023-07-22T02:14:00;12.80;;;4.30;;
22752;SDS011;11543;43.144;24.684;2023-07-22T02:16:26;19.48;;;4.32;;
22752;SDS011;11543;43.144;24.684;2023-07-22T02:18:51;10.77;;;4.85;;
22752;SDS011;11543;43.144;24.684;2023-07-22T02:21:17;14.25;;;4.18;;
22752;SDS011;11543;43.144;24.684;2023-07-22T02:23:42;12.00;;;4.35;;
22752;SDS011;11543;43.144;24.684;2023-07-22T02:26:08;10.43;;;3.95;;
22752;SDS011;11543;43.144;24.684;2023-07-22T02:28:33;15.48;;;4.47;;
22752;SDS011;11543;43.144;24.684;2023-07-22T02:31:00;14.35;;;4.20;;
22752;SDS011;11543;43.144;24.684;2023-07-22T02:33:32;10.40;;;3.88;;
22752;SDS011;11543;43.144;24.684;2023-07-22T02:35:57;12.88;;;4.00;;
22752;SDS011;11543;43.144;24.684;2023-07-22T02:38:23;12.68;;;3.78;;
22752;SDS011;11543;43.144;24.684;2023-07-22T02:40:48;10.98;;;3.95;;
22752;SDS011;11543;43.144;24.684;2023-07-22T02:43:14;15.05;;;4.07;;
22752;SDS011;11543;43.144;24.684;2023-07-22T02:45:40;10.77;;;4.10;;
22752;SDS011;11543;43.144;24.684;2023-07-22T02:48:06;10.60;;;3.80;;
22752;SDS011;11543;43.144;24.684;2023-07-22T02:50:31;18.80;;;4.40;;
22752;SDS011;11543;43.144;24.684;2023-07-22T02:52:57;16.00;;;3.75;;
22752;SDS011;11543;43.144;24.684;2023-07-22T02:55:22;11.10;;;4.10;;
22752;SDS011;11543;43.144;24.684;2023-07-22T02:57:48;11.57;;;3.45;;
22752;SDS011;11543;43.144;24.684;2023-07-22T03:00:15;15.13;;;3.95;;
22752;SDS011;11543;43.144;24.684;2023-07-22T03:02:51;12.57;;;3.75;;
22752;SDS011;11543;43.144;24.684;2023-07-22T03:05:18;16.15;;;3.70;;
22752;SDS011;11543;43.144;24.684;2023-07-22T03:07:44;10.10;;;3.53;;
22752;SDS011;11543;43.144;24.684;2023-07-22T03:10:09;13.93;;;4.13;;
22752;SDS011;11543;43.144;24.684;2023-07-22T03:12:35;10.13;;;4.40;;
22752;SDS011;11543;43.144;24.684;2023-07-22T03:15:01;16.08;;;4.03;;
22752;SDS011;11543;43.144;24.684;2023-07-22T03:17:29;21.25;;;4.60;;
22752;SDS011;11543;43.144;24.684;2023-07-22T03:19:54;14.88;;;4.10;;
22752;SDS011;11543;43.144;24.684;2023-07-22T03:22:20;16.08;;;5.20;;
22752;SDS011;11543;43.144;24.684;2023-07-22T03:24:46;11.63;;;4.47;;
22752;SDS011;11543;43.144;24.684;2023-07-22T03:27:12;9.85;;;4.53;;
22752;SDS011;11543;43.144;24.684;2023-07-22T03:29:39;16.08;;;5.03;;
22752;SDS011;11543;43.144;24.684;2023-07-22T03:32:05;12.45;;;4.30;;
22752;SDS011;11543;43.144;24.684;2023-07-22T03:34:31;14.07;;;4.50;;
22752;SDS011;11543;43.144;24.684;2023-07-22T03:36:57;12.80;;;4.30;;
22752;SDS011;11543;43.144;24.684;2023-07-22T03:39:23;19.58;;;4.47;;
22752;SDS011;11543;43.144;24.684;2023-07-22T03:41:49;16.05;;;3.72;;
22752;SDS011;11543;43.144;24.684;2023-07-22T03:44:14;12.30;;;4.22;;
22752;SDS011;11543;43.144;24.684;2023-07-22T03:46:40;15.35;;;4.07;;
22752;SDS011;11543;43.144;24.684;2023-07-22T03:49:05;15.60;;;4.30;;
22752;SDS011;11543;43.144;24.684;2023-07-22T03:51:31;23.45;;;4.35;;
22752;SDS011;11543;43.144;24.684;2023-07-22T03:53:58;11.07;;;4.03;;
22752;SDS011;11543;43.144;24.684;2023-07-22T03:56:23;10.88;;;4.00;;
22752;SDS011;11543;43.144;24.684;2023-07-22T03:58:49;12.60;;;3.80;;
22752;SDS011;11543;43.144;24.684;2023-07-22T04:01:15;16.83;;;4.60;;
22752;SDS011;11543;43.144;24.684;2023-07-22T04:03:41;21.98;;;8.77;;
22752;SDS011;11543;43.144;24.684;2023-07-22T04:06:06;28.17;;;11.80;;
22752;SDS011;11543;43.144;24.684;2023-07-22T04:08:32;33.72;;;14.40;;
22752;SDS011;11543;43.144;24.684;2023-07-22T04:10:57;26.65;;;11.13;;
22752;SDS011;11543;43.144;24.684;2023-07-22T04:13:23;21.50;;;9.27;;
22752;SDS011;11543;43.144;24.684;2023-07-22T04:15:50;17.55;;;6.30;;
22752;SDS011;11543;43.144;24.684;2023-07-22T04:18:16;21.83;;;8.23;;
22752;SDS011;11543;43.144;24.684;2023-07-22T04:20:42;17.70;;;6.82;;
22752;SDS011;11543;43.144;24.684;2023-07-22T04:23:08;21.45;;;6.25;;
22752;SDS011;11543;43.144;24.684;2023-07-22T04:25:38;15.23;;;5.07;;
22752;SDS011;11543;43.144;24.684;2023-07-22T04:28:07;20.75;;;4.63;;
22752;SDS011;11543;43.144;24.684;2023-07-22T04:30:33;14.63;;;4.47;;
22752;SDS011;11543;43.144;24.684;2023-07-22T04:32:59;18.20;;;4.63;;
22752;SDS011;11543;43.144;24.684;2023-07-22T04:35:25;17.75;;;4.53;;
22752;SDS011;11543;43.144;24.684;2023-07-22T04:37:50;16.88;;;4.43;;
22752;SDS011;11543;43.144;24.684;2023-07-22T04:40:16;16.10;;;4.10;;
22752;SDS011;11543;43.144;24.684;2023-07-22T04:42:43;14.57;;;4.13;;
22752;SDS011;11543;43.144;24.684;2023-07-22T04:45:09;16.95;;;3.88;;
22752;SDS011;11543;43.144;24.684;2023-07-22T04:47:36;12.85;;;4.10;;
22752;SDS011;11543;43.144;24.684;2023-07-22T04:50:03;18.00;;;4.47;;
22752;SDS011;11543;43.144;24.684;2023-07-22T04:52:32;17.65;;;4.40;;
22752;SDS011;11543;43.144;24.684;2023-07-22T04:54:57;11.00;;;4.00;;
22752;SDS011;11543;43.144;24.684;2023-07-22T04:57:23;13.77;;;4.20;;
22752;SDS011;11543;43.144;24.684;2023-07-22T04:59:48;15.23;;;4.35;;
22752;SDS011;11543;43.144;24.684;2023-07-22T05:02:14;19.80;;;4.07;;
22752;SDS011;11543;43.144;24.684;2023-07-22T05:04:39;20.48;;;3.97;;
22752;SDS011;11543;43.144;24.684;2023-07-22T05:07:05;18.33;;;4.25;;
22752;SDS011;11543;43.144;24.684;2023-07-22T05:09:30;13.80;;;4.35;;
22752;SDS011;11543;43.144;24.684;2023-07-22T05:11:56;16.30;;;4.40;;
22752;SDS011;11543;43.144;24.684;2023-07-22T05:14:21;17.98;;;4.40;;
22752;SDS011;11543;43.144;24.684;2023-07-22T05:16:47;11.63;;;4.20;;
22752;SDS011;11543;43.144;24.684;2023-07-22T05:19:12;20.70;;;4.85;;
22752;SDS011;11543;43.144;24.684;2023-07-22T05:21:38;12.13;;;4.38;;
22752;SDS011;11543;43.144;24.684;2023-07-22T05:24:03;14.68;;;4.15;;
22752;SDS011;11543;43.144;24.684;2023-07-22T05:26:29;16.33;;;4.38;;
22752;SDS011;11543;43.144;24.684;2023-07-22T05:28:55;15.52;;;4.10;;
22752;SDS011;11543;43.144;24.684;2023-07-22T05:31:20;17.90;;;4.57;;
22752;SDS011;11543;43.144;24.684;2023-07-22T05:33:46;11.52;;;4.05;;
22752;SDS011;11543;43.144;24.684;2023-07-22T05:36:12;12.98;;;4.03;;
22752;SDS011;11543;43.144;24.684;2023-07-22T05:38:37;20.45;;;3.80;;
22752;SDS011;11543;43.144;24.684;2023-07-22T05:41:03;19.05;;;4.35;;
22752;SDS011;11543;43.144;24.684;2023-07-22T05:43:28;10.05;;;4.63;;
22752;SDS011;11543;43.144;24.684;2023-07-22T05:45:54;14.13;;;4.47;;
22752;SDS011;11543;43.144;24.684;2023-07-22T05:48:19;10.85;;;4.32;;
22752;SDS011;11543;43.144;24.684;2023-07-22T05:50:46;14.75;;;3.70;;
22752;SDS011;11543;43.144;24.684;2023-07-22T05:53:12;11.77;;;3.80;;
22752;SDS011;11543;43.144;24.684;2023-07-22T05:55:38;13.55;;;4.53;;
22752;SDS011;11543;43.144;24.684;2023-07-22T05:58:04;13.25;;;3.83;;
22752;SDS011;11543;43.144;24.684;2023-07-22T06:00:33;8.38;;;3.88;;
22752;SDS011;11543;43.144;24.684;2023-07-22T06:02:59;11.48;;;4.00;;
22752;SDS011;11543;43.144;24.684;2023-07-22T06:05:25;14.30;;;3.67;;
22752;SDS011;11543;43.144;24.684;2023-07-22T06:07:50;8.85;;;3.33;;
22752;SDS011;11543;43.144;24.684;2023-07-22T06:10:16;9.25;;;3.13;;
22752;SDS011;11543;43.144;24.684;2023-07-22T06:12:41;8.65;;;3.72;;
22752;SDS011;11543;43.144;24.684;2023-07-22T06:15:07;8.27;;;3.10;;
22752;SDS011;11543;43.144;24.684;2023-07-22T06:17:33;11.05;;;3.42;;
22752;SDS011;11543;43.144;24.684;2023-07-22T06:19:58;10.02;;;4.35;;
22752;SDS011;11543;43.144;24.684;2023-07-22T06:22:24;6.43;;;4.40;;
22752;SDS011;11543;43.144;24.684;2023-07-22T06:24:49;6.47;;;3.30;;
22752;SDS011;11543;43.144;24.684;2023-07-22T06:27:15;8.32;;;3.50;;
22752;SDS011;11543;43.144;24.684;2023-07-22T06:29:40;8.82;;;3.35;;
22752;SDS011;11543;43.144;24.684;2023-07-22T06:32:06;10.55;;;3.40;;
22752;SDS011;11543;43.144;24.684;2023-07-22T06:34:31;15.27;;;3.47;;
22752;SDS011;11543;43.144;24.684;2023-07-22T06:36:57;7.50;;;3.45;;
22752;SDS011;11543;43.144;24.684;2023-07-22T06:39:22;8.55;;;3.72;;
22752;SDS011;11543;43.144;24.684;2023-07-22T06:41:48;10.95;;;3.70;;
22752;SDS011;11543;43.144;24.684;2023-07-22T06:44:13;5.88;;;3.00;;
22752;SDS011;11543;43.144;24.684;2023-07-22T06:46:39;8.18;;;3.72;;
22752;SDS011;11543;43.144;24.684;2023-07-22T06:49:04;6.03;;;2.85;;
22752;SDS011;11543;43.144;24.684;2023-07-22T06:51:30;6.63;;;3.00;;
22752;SDS011;11543;43.144;24.684;2023-07-22T06:53:55;10.07;;;2.83;;
22752;SDS011;11543;43.144;24.684;2023-07-22T06:56:20;9.43;;;2.72;;
22752;SDS011;11543;43.144;24.684;2023-07-22T06:58:46;9.45;;;2.58;;
22752;SDS011;11543;43.144;24.684;2023-07-22T07:01:12;8.60;;;2.90;;
22752;SDS011;11543;43.144;24.684;2023-07-22T07:03:37;8.77;;;2.97;;
22752;SDS011;11543;43.144;24.684;2023-07-22T07:06:03;9.90;;;2.30;;
22752;SDS011;11543;43.144;24.684;2023-07-22T07:08:28;7.75;;;2.63;;
22752;SDS011;11543;43.144;24.684;2023-07-22T07:10:53;9.27;;;2.70;;
22752;SDS011;11543;43.144;24.684;2023-07-22T07:13:19;9.05;;;2.70;;
22752;SDS011;11543;43.144;24.684;2023-07-22T07:15:48;7.80;;;2.15;;
22752;SDS011;11543;43.144;24.684;2023-07-22T07:18:14;7.82;;;2.50;;
22752;SDS011;11543;43.144;24.684;2023-07-22T07:20:40;10.25;;;2.33;;
22752;SDS011;11543;43.144;24.684;2023-07-22T07:23:05;6.50;;;2.10;;
22752;SDS011;11543;43.144;24.684;2023-07-22T07:25:30;8.35;;;2.28;;
22752;SDS011;11543;43.144;24.684;2023-07-22T07:27:56;13.38;;;2.15;;
22752;SDS011;11543;43.144;24.684;2023-07-22T07:30:21;5.43;;;2.20;;
22752;SDS011;11543;43.144;24.684;2023-07-22T07:32:47;12.82;;;2.67;;
22752;SDS011;11543;43.144;24.684;2023-07-22T07:35:12;8.35;;;2.33;;
22752;SDS011;11543;43.144;24.684;2023-07-22T07:37:38;9.13;;;2.40;;
22752;SDS011;11543;43.144;24.684;2023-07-22T07:40:03;9.45;;;2.20;;
22752;SDS011;11543;43.144;24.684;2023-07-22T07:42:29;13.77;;;2.55;;
22752;SDS011;11543;43.144;24.684;2023-07-22T07:44:55;8.65;;;2.70;;
22752;SDS011;11543;43.144;24.684;2023-07-22T07:47:20;5.68;;;1.98;;
22752;SDS011;11543;43.144;24.684;2023-07-22T07:49:46;6.20;;;2.20;;
22752;SDS011;11543;43.144;24.684;2023-07-22T07:52:11;6.93;;;2.00;;
22752;SDS011;11543;43.144;24.684;2023-07-22T07:54:37;7.47;;;2.20;;
22752;SDS011;11543;43.144;24.684;2023-07-22T07:57:02;8.38;;;2.90;;
22752;SDS011;11543;43.144;24.684;2023-07-22T07:59:28;5.75;;;2.40;;
22752;SDS011;11543;43.144;24.684;2023-07-22T08:01:54;8.50;;;2.20;;
22752;SDS011;11543;43.144;24.684;2023-07-22T08:04:19;7.90;;;2.20;;
22752;SDS011;11543;43.144;24.684;2023-07-22T08:06:45;5.95;;;2.45;;
22752;SDS011;11543;43.144;24.684;2023-07-22T08:09:10;9.75;;;2.30;;
22752;SDS011;11543;43.144;24.684;2023-07-22T08:11:36;10.95;;;2.20;;
22752;SDS011;11543;43.144;24.684;2023-07-22T08:14:03;7.20;;;2.35;;
22752;SDS011;11543;43.144;24.684;2023-07-22T08:16:28;7.32;;;2.47;;
22752;SDS011;11543;43.144;24.684;2023-07-22T08:18:54;10.38;;;2.20;;
22752;SDS011;11543;43.144;24.684;2023-07-22T08:21:19;9.63;;;2.25;;
22752;SDS011;11543;43.144;24.684;2023-07-22T08:23:45;7.60;;;2.30;;
22752;SDS011;11543;43.144;24.684;2023-07-22T08:26:10;7.40;;;2.40;;
22752;SDS011;11543;43.144;24.684;2023-07-22T08:28:36;9.50;;;2.40;;
22752;SDS011;11543;43.144;24.684;2023-07-22T08:31:01;12.18;;;2.30;;
22752;SDS011;11543;43.144;24.684;2023-07-22T08:33:27;5.88;;;2.35;;
22752;SDS011;11543;43.144;24.684;2023-07-22T08:35:53;9.20;;;2.50;;
22752;SDS011;11543;43.144;24.684;2023-07-22T08:38:18;7.55;;;2.53;;
22752;SDS011;11543;43.144;24.684;2023-07-22T08:40:44;7.20;;;2.25;;
22752;SDS011;11543;43.144;24.684;2023-07-22T08:43:10;8.05;;;2.30;;
22752;SDS011;11543;43.144;24.684;2023-07-22T08:45:36;7.60;;;2.50;;
22752;SDS011;11543;43.144;24.684;2023-07-22T08:48:04;8.98;;;2.33;;
22752;SDS011;11543;43.144;24.684;2023-07-22T08:51:03;7.68;;;2.10;;
22752;SDS011;11543;43.144;24.684;2023-07-22T08:53:30;7.38;;;2.35;;
22752;SDS011;11543;43.144;24.684;2023-07-22T08:55:55;6.03;;;2.10;;
22752;SDS011;11543;43.144;24.684;2023-07-22T08:58:21;6.30;;;2.17;;
22752;SDS011;11543;43.144;24.684;2023-07-22T09:00:47;5.38;;;2.17;;
22752;SDS011;11543;43.144;24.684;2023-07-22T09:03:13;9.30;;;2.20;;
22752;SDS011;11543;43.144;24.684;2023-07-22T09:05:39;6.35;;;2.03;;
22752;SDS011;11543;43.144;24.684;2023-07-22T09:08:07;10.05;;;2.30;;
22752;SDS011;11543;43.144;24.684;2023-07-22T09:10:33;8.70;;;2.22;;
22752;SDS011;11543;43.144;24.684;2023-07-22T09:12:59;9.85;;;2.47;;
22752;SDS011;11543;43.144;24.684;2023-07-22T09:15:26;4.93;;;1.92;;
22752;SDS011;11543;43.144;24.684;2023-07-22T09:17:52;6.45;;;2.05;;
22752;SDS011;11543;43.144;24.684;2023-07-22T09:20:18;6.97;;;2.22;;
22752;SDS011;11543;43.144;24.684;2023-07-22T09:22:45;8.77;;;2.30;;
22752;SDS011;11543;43.144;24.684;2023-07-22T09:25:22;12.98;;;2.83;;
22752;SDS011;11543;43.144;24.684;2023-07-22T09:27:50;8.93;;;2.70;;
22752;SDS011;11543;43.144;24.684;2023-07-22T09:32:50;8.30;;;2.40;;
22752;SDS011;11543;43.144;24.684;2023-07-22T09:35:17;8.13;;;2.72;;
22752;SDS011;11543;43.144;24.684;2023-07-22T09:37:43;9.93;;;2.60;;
22752;SDS011;11543;43.144;24.684;2023-07-22T09:40:19;7.88;;;2.50;;
22752;SDS011;11543;43.144;24.684;2023-07-22T09:45:18;8.68;;;2.38;;
22752;SDS011;11543;43.144;24.684;2023-07-22T09:47:47;8.73;;;2.55;;
22752;SDS011;11543;43.144;24.684;2023-07-22T09:50:15;12.73;;;2.75;;
22752;SDS011;11543;43.144;24.684;2023-07-22T09:52:49;9.88;;;2.60;;
22752;SDS011;11543;43.144;24.684;2023-07-22T09:55:20;11.32;;;2.88;;
22752;SDS011;11543;43.144;24.684;2023-07-22T09:57:47;8.25;;;2.67;;
22752;SDS011;11543;43.144;24.684;2023-07-22T10:00:15;9.02;;;2.40;;
22752;SDS011;11543;43.144;24.684;2023-07-22T10:02:43;9.75;;;2.55;;
22752;SDS011;11543;43.144;24.684;2023-07-22T10:05:11;10.10;;;2.50;;
22752;SDS011;11543;43.144;24.684;2023-07-22T10:07:40;9.23;;;2.90;;
22752;SDS011;11543;43.144;24.684;2023-07-22T10:10:10;7.88;;;2.45;;
22752;SDS011;11543;43.144;24.684;2023-07-22T10:12:36;7.95;;;2.58;;
22752;SDS011;11543;43.144;24.684;2023-07-22T10:15:04;11.52;;;2.92;;
22752;SDS011;11543;43.144;24.684;2023-07-22T10:17:31;7.25;;;2.28;;
22752;SDS011;11543;43.144;24.684;2023-07-22T10:19:56;13.20;;;2.83;;
22752;SDS011;11543;43.144;24.684;2023-07-22T10:22:22;8.77;;;2.53;;
22752;SDS011;11543;43.144;24.684;2023-07-22T10:24:48;11.40;;;2.83;;
22752;SDS011;11543;43.144;24.684;2023-07-22T10:27:15;19.10;;;2.63;;
22752;SDS011;11543;43.144;24.684;2023-07-22T10:29:43;9.48;;;2.67;;
22752;SDS011;11543;43.144;24.684;2023-07-22T10:32:10;9.77;;;2.90;;
22752;SDS011;11543;43.144;24.684;2023-07-22T10:34:36;9.52;;;2.75;;
22752;SDS011;11543;43.144;24.684;2023-07-22T10:37:01;11.05;;;2.70;;
22752;SDS011;11543;43.144;24.684;2023-07-22T10:39:29;9.77;;;2.70;;
22752;SDS011;11543;43.144;24.684;2023-07-22T10:42:01;11.45;;;2.65;;
22752;SDS011;11543;43.144;24.684;2023-07-22T10:44:31;8.65;;;2.95;;
22752;SDS011;11543;43.144;24.684;2023-07-22T10:46:58;13.85;;;2.92;;
22752;SDS011;11543;43.144;24.684;2023-07-22T10:49:24;14.10;;;2.80;;
22752;SDS011;11543;43.144;24.684;2023-07-22T10:52:07;10.07;;;2.90;;
22752;SDS011;11543;43.144;24.684;2023-07-22T10:54:34;6.68;;;2.70;;
22752;SDS011;11543;43.144;24.684;2023-07-22T10:57:43;15.20;;;3.28;;
22752;SDS011;11543;43.144;24.684;2023-07-22T10:59:50;13.00;;;2.80;;
22752;SDS011;11543;43.144;24.684;2023-07-22T11:02:26;11.18;;;2.83;;
22752;SDS011;11543;43.144;24.684;2023-07-22T11:04:53;10.55;;;2.85;;
22752;SDS011;11543;43.144;24.684;2023-07-22T11:07:32;7.82;;;2.53;;
22752;SDS011;11543;43.144;24.684;2023-07-22T11:10:13;13.88;;;2.85;;
22752;SDS011;11543;43.144;24.684;2023-07-22T11:12:43;8.10;;;2.83;;
22752;SDS011;11543;43.144;24.684;2023-07-22T11:15:10;11.02;;;2.70;;
22752;SDS011;11543;43.144;24.684;2023-07-22T11:17:37;11.38;;;3.05;;
22752;SDS011;11543;43.144;24.684;2023-07-22T11:20:03;10.63;;;2.97;;
22752;SDS011;11543;43.144;24.684;2023-07-22T11:22:29;12.82;;;3.10;;
22752;SDS011;11543;43.144;24.684;2023-07-22T11:24:55;14.48;;;3.15;;
22752;SDS011;11543;43.144;24.684;2023-07-22T11:27:23;13.52;;;3.22;;
22752;SDS011;11543;43.144;24.684;2023-07-22T11:29:49;11.95;;;3.10;;
22752;SDS011;11543;43.144;24.684;2023-07-22T11:32:18;16.83;;;3.08;;
22752;SDS011;11543;43.144;24.684;2023-07-22T11:34:47;10.15;;;3.10;;
22752;SDS011;11543;43.144;24.684;2023-07-22T11:37:13;11.57;;;3.00;;
22752;SDS011;11543;43.144;24.684;2023-07-22T11:39:39;13.10;;;3.15;;
22752;SDS011;11543;43.144;24.684;2023-07-22T11:42:06;10.63;;;3.10;;
22752;SDS011;11543;43.144;24.684;2023-07-22T11:44:32;13.57;;;2.97;;
22752;SDS011;11543;43.144;24.684;2023-07-22T11:46:58;15.95;;;3.10;;
22752;SDS011;11543;43.144;24.684;2023-07-22T11:54:31;12.23;;;3.40;;
22752;SDS011;11543;43.144;24.684;2023-07-22T11:57:09;12.38;;;3.33;;
22752;SDS011;11543;43.144;24.684;2023-07-22T11:59:46;12.70;;;3.13;;
22752;SDS011;11543;43.144;24.684;2023-07-22T12:02:13;15.60;;;3.55;;
22752;SDS011;11543;43.144;24.684;2023-07-22T12:04:40;12.20;;;3.17;;
22752;SDS011;11543;43.144;24.684;2023-07-22T12:07:05;14.30;;;3.42;;
22752;SDS011;11543;43.144;24.684;2023-07-22T12:09:31;11.88;;;3.25;;
22752;SDS011;11543;43.144;24.684;2023-07-22T12:11:59;16.52;;;3.67;;
22752;SDS011;11543;43.144;24.684;2023-07-22T12:14:34;13.10;;;3.45;;
22752;SDS011;11543;43.144;24.684;2023-07-22T12:17:00;10.95;;;3.03;;
22752;SDS011;11543;43.144;24.684;2023-07-22T12:19:30;16.60;;;3.60;;
22752;SDS011;11543;43.144;24.684;2023-07-22T12:21:55;14.73;;;3.22;;
22752;SDS011;11543;43.144;24.684;2023-07-22T12:24:21;11.40;;;3.40;;
22752;SDS011;11543;43.144;24.684;2023-07-22T12:26:46;11.35;;;3.35;;
22752;SDS011;11543;43.144;24.684;2023-07-22T12:29:12;10.27;;;3.38;;
22752;SDS011;11543;43.144;24.684;2023-07-22T12:31:37;11.27;;;3.05;;
22752;SDS011;11543;43.144;24.684;2023-07-22T12:34:03;13.52;;;3.42;;
22752;SDS011;11543;43.144;24.684;2023-07-22T12:36:28;13.32;;;3.38;;
22752;SDS011;11543;43.144;24.684;2023-07-22T12:38:54;15.18;;;3.42;;
22752;SDS011;11543;43.144;24.684;2023-07-22T12:41:19;12.13;;;3.50;;
22752;SDS011;11543;43.144;24.684;2023-07-22T12:43:45;14.73;;;3.88;;
22752;SDS011;11543;43.144;24.684;2023-07-22T12:46:10;19.63;;;3.92;;
22752;SDS011;11543;43.144;24.684;2023-07-22T12:48:36;20.60;;;4.47;;
22752;SDS011;11543;43.144;24.684;2023-07-22T12:51:01;13.38;;;3.70;;
22752;SDS011;11543;43.144;24.684;2023-07-22T12:53:27;15.07;;;3.45;;
22752;SDS011;11543;43.144;24.684;2023-07-22T12:55:53;12.20;;;3.90;;
22752;SDS011;11543;43.144;24.684;2023-07-22T12:58:18;10.65;;;3.45;;
22752;SDS011;11543;43.144;24.684;2023-07-22T13:00:44;17.13;;;4.00;;
22752;SDS011;11543;43.144;24.684;2023-07-22T13:03:09;12.25;;;3.85;;
22752;SDS011;11543;43.144;24.684;2023-07-22T13:05:35;15.50;;;3.92;;
22752;SDS011;11543;43.144;24.684;2023-07-22T13:08:00;14.80;;;4.00;;
22752;SDS011;11543;43.144;24.684;2023-07-22T13:10:26;15.63;;;4.07;;
22752;SDS011;11543;43.144;24.684;2023-07-22T13:12:53;14.10;;;4.03;;
22752;SDS011;11543;43.144;24.684;2023-07-22T13:15:19;14.32;;;4.30;;
22752;SDS011;11543;43.144;24.684;2023-07-22T13:17:45;14.23;;;4.00;;
22752;SDS011;11543;43.144;24.684;2023-07-22T13:20:10;12.93;;;4.15;;
22752;SDS011;11543;43.144;24.684;2023-07-22T13:22:37;19.48;;;4.00;;
22752;SDS011;11543;43.144;24.684;2023-07-22T13:25:05;14.18;;;3.95;;
22752;SDS011;11543;43.144;24.684;2023-07-22T13:27:32;14.65;;;3.70;;
22752;SDS011;11543;43.144;24.684;2023-07-22T13:29:58;10.57;;;3.45;;
22752;SDS011;11543;43.144;24.684;2023-07-22T13:32:24;12.88;;;3.72;;
22752;SDS011;11543;43.144;24.684;2023-07-22T13:34:51;11.77;;;3.20;;
22752;SDS011;11543;43.144;24.684;2023-07-22T13:37:16;11.45;;;3.08;;
22752;SDS011;11543;43.144;24.684;2023-07-22T13:39:41;10.50;;;2.90;;
22752;SDS011;11543;43.144;24.684;2023-07-22T13:42:07;11.60;;;2.90;;
22752;SDS011;11543;43.144;24.684;2023-07-22T13:44:33;10.45;;;2.95;;
22752;SDS011;11543;43.144;24.684;2023-07-22T13:46:59;9.88;;;3.13;;
22752;SDS011;11543;43.144;24.684;2023-07-22T13:49:24;18.52;;;3.35;;
22752;SDS011;11543;43.144;24.684;2023-07-22T13:51:50;10.32;;;3.53;;
22752;SDS011;11543;43.144;24.684;2023-07-22T13:54:15;13.88;;;3.08;;
22752;SDS011;11543;43.144;24.684;2023-07-22T13:56:41;12.25;;;3.47;;
22752;SDS011;11543;43.144;24.684;2023-07-22T13:59:08;13.50;;;3.30;;
22752;SDS011;11543;43.144;24.684;2023-07-22T14:01:34;13.77;;;3.33;;
22752;SDS011;11543;43.144;24.684;2023-07-22T14:03:59;10.23;;;3.03;;
22752;SDS011;11543;43.144;24.684;2023-07-22T14:06:25;15.40;;;3.10;;
22752;SDS011;11543;43.144;24.684;2023-07-22T14:08:50;13.90;;;3.10;;
22752;SDS011;11543;43.144;24.684;2023-07-22T14:11:16;11.48;;;2.88;;
22752;SDS011;11543;43.144;24.684;2023-07-22T14:13:42;15.10;;;3.75;;
22752;SDS011;11543;43.144;24.684;2023-07-22T14:16:08;11.20;;;3.03;;
22752;SDS011;11543;43.144;24.684;2023-07-22T14:18:33;14.65;;;3.20;;
22752;SDS011;11543;43.144;24.684;2023-07-22T14:20:59;9.40;;;2.90;;
22752;SDS011;11543;43.144;24.684;2023-07-22T14:23:24;14.63;;;3.10;;
22752;SDS011;11543;43.144;24.684;2023-07-22T14:25:50;11.40;;;2.78;;
22752;SDS011;11543;43.144;24.684;2023-07-22T14:28:15;14.65;;;3.03;;
22752;SDS011;11543;43.144;24.684;2023-07-22T14:30:40;14.23;;;3.08;;
22752;SDS011;11543;43.144;24.684;2023-07-22T14:33:06;10.55;;;2.83;;